sensor_id;sensor_type;location;lat;lon;timestamp;temperature;humidity
7411;DHT22;3747;48.628;9.058;2023-07-13T00:01:13;17.20;99.90
7411;DHT22;3747;48.628;9.058;2023-07-13T00:03:40;17.30;99.90
7411;DHT22;3747;48.628;9.058;2023-07-13T00:06:08;17.20;99.90
7411;DHT22;3747;48.628;9.058;2023-07-13T00:08:35;17.10;99.90
7411;DHT22;3747;48.628;9.058;2023-07-13T00:11:02;17.00;99.90
7411;DHT22;3747;48.628;9.058;2023-07-13T00:13:30;16.90;99.90
7411;DHT22;3747;48.628;9.058;2023-07-13T00:15:57;16.80;99.90
7411;DHT22;3747;48.628;9.058;2023-07-13T00:18:25;16.80;99.90
7411;DHT22;3747;48.628;9.058;2023-07-13T00:20:55;16.90;99.90
7411;DHT22;3747;48.628;9.058;2023-07-13T00:23:25;16.90;99.90
7411;DHT22;3747;48.628;9.058;2023-07-13T00:25:51;16.90;99.90
7411;DHT22;3747;48.628;9.058;2023-07-13T00:28:18;16.80;99.90
7411;DHT22;3747;48.628;9.058;2023-07-13T00:30:45;16.70;99.90
7411;DHT22;3747;48.628;9.058;2023-07-13T00:33:12;16.70;99.90
7411;DHT22;3747;48.628;9.058;2023-07-13T00:35:40;16.60;99.90
7411;DHT22;3747;48.628;9.058;2023-07-13T00:38:09;16.50;99.90
7411;DHT22;3747;48.628;9.058;2023-07-13T00:40:36;16.40;99.90
7411;DHT22;3747;48.628;9.058;2023-07-13T00:43:04;16.30;99.90
7411;DHT22;3747;48.628;9.058;2023-07-13T00:48:36;16.40;99.90
7411;DHT22;3747;48.628;9.058;2023-07-13T00:51:05;16.50;99.90
7411;DHT22;3747;48.628;9.058;2023-07-13T00:53:33;16.30;99.90
7411;DHT22;3747;48.628;9.058;2023-07-13T00:56:00;16.30;99.90
7411;DHT22;3747;48.628;9.058;2023-07-13T00:58:28;16.30;99.90
7411;DHT22;3747;48.628;9.058;2023-07-13T01:00:55;16.30;99.90
7411;DHT22;3747;48.628;9.058;2023-07-13T01:03:22;16.20;99.90
7411;DHT22;3747;48.628;9.058;2023-07-13T01:05:49;16.20;99.90
7411;DHT22;3747;48.628;9.058;2023-07-13T01:08:18;16.20;99.90
7411;DHT22;3747;48.628;9.058;2023-07-13T01:10:51;16.20;99.90
7411;DHT22;3747;48.628;9.058;2023-07-13T01:13:19;16.20;99.90
7411;DHT22;3747;48.628;9.058;2023-07-13T01:15:48;16.20;99.90
7411;DHT22;3747;48.628;9.058;2023-07-13T01:18:17;16.20;99.90
7411;DHT22;3747;48.628;9.058;2023-07-13T01:20:52;16.20;99.90
7411;DHT22;3747;48.628;9.058;2023-07-13T01:23:19;16.20;99.90
7411;DHT22;3747;48.628;9.058;2023-07-13T01:25:46;16.20;99.90
7411;DHT22;3747;48.628;9.058;2023-07-13T01:28:13;16.20;99.90
7411;DHT22;3747;48.628;9.058;2023-07-13T01:30:43;16.00;99.90
7411;DHT22;3747;48.628;9.058;2023-07-13T01:33:12;15.90;99.90
7411;DHT22;3747;48.628;9.058;2023-07-13T01:35:39;15.60;99.90
7411;DHT22;3747;48.628;9.058;2023-07-13T01:38:08;15.50;99.90
7411;DHT22;3747;48.628;9.058;2023-07-13T01:40:36;15.30;99.90
7411;DHT22;3747;48.628;9.058;2023-07-13T01:43:03;15.10;99.90
7411;DHT22;3747;48.628;9.058;2023-07-13T01:45:30;15.00;99.90
7411;DHT22;3747;48.628;9.058;2023-07-13T01:47:57;14.90;99.90
7411;DHT22;3747;48.628;9.058;2023-07-13T01:50:24;14.70;99.90
7411;DHT22;3747;48.628;9.058;2023-07-13T01:52:51;14.70;99.90
7411;DHT22;3747;48.628;9.058;2023-07-13T01:55:20;14.60;99.90
7411;DHT22;3747;48.628;9.058;2023-07-13T01:57:47;14.50;99.90
7411;DHT22;3747;48.628;9.058;2023-07-13T02:00:15;14.40;99.90
7411;DHT22;3747;48.628;9.058;2023-07-13T02:02:42;14.30;99.90
7411;DHT22;3747;48.628;9.058;2023-07-13T02:05:09;14.20;99.90
7411;DHT22;3747;48.628;9.058;2023-07-13T02:07:36;14.10;99.90
7411;DHT22;3747;48.628;9.058;2023-07-13T02:10:03;14.10;99.90
7411;DHT22;3747;48.628;9.058;2023-07-13T02:12:31;14.20;99.90
7411;DHT22;3747;48.628;9.058;2023-07-13T02:14:58;14.40;99.90
7411;DHT22;3747;48.628;9.058;2023-07-13T02:17:26;14.40;99.90
7411;DHT22;3747;48.628;9.058;2023-07-13T02:19:53;14.30;99.90
7411;DHT22;3747;48.628;9.058;2023-07-13T02:22:20;14.30;99.90
7411;DHT22;3747;48.628;9.058;2023-07-13T02:24:47;14.30;99.90
7411;DHT22;3747;48.628;9.058;2023-07-13T02:27:13;14.30;99.90
7411;DHT22;3747;48.628;9.058;2023-07-13T02:29:41;14.20;99.90
7411;DHT22;3747;48.628;9.058;2023-07-13T02:32:08;14.10;99.90
7411;DHT22;3747;48.628;9.058;2023-07-13T02:34:35;14.10;99.90
7411;DHT22;3747;48.628;9.058;2023-07-13T02:37:02;14.10;99.90
7411;DHT22;3747;48.628;9.058;2023-07-13T02:39:28;14.10;99.90
7411;DHT22;3747;48.628;9.058;2023-07-13T02:41:58;14.10;99.90
7411;DHT22;3747;48.628;9.058;2023-07-13T02:44:25;14.10;99.90
7411;DHT22;3747;48.628;9.058;2023-07-13T02:46:53;14.10;99.90
7411;DHT22;3747;48.628;9.058;2023-07-13T02:49:19;14.10;99.90
7411;DHT22;3747;48.628;9.058;2023-07-13T02:51:46;14.00;99.90
7411;DHT22;3747;48.628;9.058;2023-07-13T02:54:13;14.00;99.90
7411;DHT22;3747;48.628;9.058;2023-07-13T02:56:40;14.00;99.90
7411;DHT22;3747;48.628;9.058;2023-07-13T02:59:07;13.90;99.90
7411;DHT22;3747;48.628;9.058;2023-07-13T03:01:33;13.80;99.90
7411;DHT22;3747;48.628;9.058;2023-07-13T03:04:03;13.90;99.90
7411;DHT22;3747;48.628;9.058;2023-07-13T03:06:31;13.90;99.90
7411;DHT22;3747;48.628;9.058;2023-07-13T03:08:57;13.90;99.90
7411;DHT22;3747;48.628;9.058;2023-07-13T03:11:25;13.90;99.90
7411;DHT22;3747;48.628;9.058;2023-07-13T03:13:52;13.90;99.90
7411;DHT22;3747;48.628;9.058;2023-07-13T03:16:19;13.90;99.90
7411;DHT22;3747;48.628;9.058;2023-07-13T03:18:47;13.90;99.90
7411;DHT22;3747;48.628;9.058;2023-07-13T03:21:15;13.90;99.90
7411;DHT22;3747;48.628;9.058;2023-07-13T03:23:42;13.90;99.90
7411;DHT22;3747;48.628;9.058;2023-07-13T03:26:11;14.00;99.90
7411;DHT22;3747;48.628;9.058;2023-07-13T03:28:38;14.00;99.90
7411;DHT22;3747;48.628;9.058;2023-07-13T03:31:07;14.20;99.90
7411;DHT22;3747;48.628;9.058;2023-07-13T03:33:34;14.20;99.90
7411;DHT22;3747;48.628;9.058;2023-07-13T03:36:02;14.20;99.90
7411;DHT22;3747;48.628;9.058;2023-07-13T03:38:30;14.30;99.90
7411;DHT22;3747;48.628;9.058;2023-07-13T03:40:57;14.40;99.90
7411;DHT22;3747;48.628;9.058;2023-07-13T03:43:24;14.50;99.90
7411;DHT22;3747;48.628;9.058;2023-07-13T03:45:50;14.50;99.90
7411;DHT22;3747;48.628;9.058;2023-07-13T03:48:18;14.50;99.90
7411;DHT22;3747;48.628;9.058;2023-07-13T03:50:45;14.50;99.90
7411;DHT22;3747;48.628;9.058;2023-07-13T03:53:13;14.60;99.90
7411;DHT22;3747;48.628;9.058;2023-07-13T03:55:41;14.60;99.90
7411;DHT22;3747;48.628;9.058;2023-07-13T03:58:29;14.60;99.90
7411;DHT22;3747;48.628;9.058;2023-07-13T04:00:56;14.60;99.90
7411;DHT22;3747;48.628;9.058;2023-07-13T04:03:24;14.60;99.90
7411;DHT22;3747;48.628;9.058;2023-07-13T04:05:51;14.60;99.90
7411;DHT22;3747;48.628;9.058;2023-07-13T04:08:17;14.60;99.90
7411;DHT22;3747;48.628;9.058;2023-07-13T04:10:45;14.60;99.90
7411;DHT22;3747;48.628;9.058;2023-07-13T04:13:12;14.60;99.90
7411;DHT22;3747;48.628;9.058;2023-07-13T04:15:40;14.60;99.90
7411;DHT22;3747;48.628;9.058;2023-07-13T04:18:07;14.70;99.90
7411;DHT22;3747;48.628;9.058;2023-07-13T04:20:34;14.70;99.90
7411;DHT22;3747;48.628;9.058;2023-07-13T04:23:01;14.80;99.90
7411;DHT22;3747;48.628;9.058;2023-07-13T04:25:28;14.80;99.90
7411;DHT22;3747;48.628;9.058;2023-07-13T04:27:56;14.90;99.90
7411;DHT22;3747;48.628;9.058;2023-07-13T04:30:23;14.90;99.90
7411;DHT22;3747;48.628;9.058;2023-07-13T04:32:51;15.00;99.90
7411;DHT22;3747;48.628;9.058;2023-07-13T04:35:18;15.00;99.90
7411;DHT22;3747;48.628;9.058;2023-07-13T04:37:46;14.90;99.90
7411;DHT22;3747;48.628;9.058;2023-07-13T04:40:13;14.90;99.90
7411;DHT22;3747;48.628;9.058;2023-07-13T04:42:39;14.80;99.90
7411;DHT22;3747;48.628;9.058;2023-07-13T04:45:08;14.80;99.90
7411;DHT22;3747;48.628;9.058;2023-07-13T04:47:35;14.70;99.90
7411;DHT22;3747;48.628;9.058;2023-07-13T04:50:02;14.70;99.90
7411;DHT22;3747;48.628;9.058;2023-07-13T04:52:30;14.70;99.90
7411;DHT22;3747;48.628;9.058;2023-07-13T04:54:58;14.70;99.90
7411;DHT22;3747;48.628;9.058;2023-07-13T04:57:25;14.80;99.90
7411;DHT22;3747;48.628;9.058;2023-07-13T04:59:52;14.80;99.90
7411;DHT22;3747;48.628;9.058;2023-07-13T05:02:22;14.90;99.90
7411;DHT22;3747;48.628;9.058;2023-07-13T05:04:49;15.00;99.90
7411;DHT22;3747;48.628;9.058;2023-07-13T05:07:15;15.10;99.90
7411;DHT22;3747;48.628;9.058;2023-07-13T05:09:42;15.30;99.90
7411;DHT22;3747;48.628;9.058;2023-07-13T05:12:09;15.50;99.90
7411;DHT22;3747;48.628;9.058;2023-07-13T05:14:36;15.60;99.90
7411;DHT22;3747;48.628;9.058;2023-07-13T05:17:03;15.80;99.90
7411;DHT22;3747;48.628;9.058;2023-07-13T05:19:31;16.00;99.90
7411;DHT22;3747;48.628;9.058;2023-07-13T05:21:58;16.30;99.90
7411;DHT22;3747;48.628;9.058;2023-07-13T05:24:25;16.30;99.90
7411;DHT22;3747;48.628;9.058;2023-07-13T05:26:52;16.30;99.90
7411;DHT22;3747;48.628;9.058;2023-07-13T05:29:19;16.40;99.90
7411;DHT22;3747;48.628;9.058;2023-07-13T05:31:46;16.50;99.90
7411;DHT22;3747;48.628;9.058;2023-07-13T05:34:13;16.70;99.90
7411;DHT22;3747;48.628;9.058;2023-07-13T05:36:41;16.90;99.90
7411;DHT22;3747;48.628;9.058;2023-07-13T05:39:08;17.10;99.90
7411;DHT22;3747;48.628;9.058;2023-07-13T05:41:35;17.20;99.90
7411;DHT22;3747;48.628;9.058;2023-07-13T05:44:02;17.20;99.90
7411;DHT22;3747;48.628;9.058;2023-07-13T05:46:29;17.20;99.90
7411;DHT22;3747;48.628;9.058;2023-07-13T05:48:56;17.30;99.90
7411;DHT22;3747;48.628;9.058;2023-07-13T05:51:23;17.40;99.90
7411;DHT22;3747;48.628;9.058;2023-07-13T05:53:51;17.30;99.90
7411;DHT22;3747;48.628;9.058;2023-07-13T05:56:17;17.20;99.90
7411;DHT22;3747;48.628;9.058;2023-07-13T05:58:44;17.20;99.90
7411;DHT22;3747;48.628;9.058;2023-07-13T06:01:13;17.20;99.90
7411;DHT22;3747;48.628;9.058;2023-07-13T06:03:40;17.30;99.90
7411;DHT22;3747;48.628;9.058;2023-07-13T06:06:08;17.60;99.90
7411;DHT22;3747;48.628;9.058;2023-07-13T06:08:35;17.90;99.90
7411;DHT22;3747;48.628;9.058;2023-07-13T06:11:05;18.20;99.90
7411;DHT22;3747;48.628;9.058;2023-07-13T06:13:33;18.80;99.90
7411;DHT22;3747;48.628;9.058;2023-07-13T06:16:00;18.90;99.90
7411;DHT22;3747;48.628;9.058;2023-07-13T06:18:29;19.40;99.90
7411;DHT22;3747;48.628;9.058;2023-07-13T06:20:56;20.00;99.90
7411;DHT22;3747;48.628;9.058;2023-07-13T06:23:23;20.40;99.90
7411;DHT22;3747;48.628;9.058;2023-07-13T06:25:50;20.00;99.90
7411;DHT22;3747;48.628;9.058;2023-07-13T06:28:18;20.00;99.90
7411;DHT22;3747;48.628;9.058;2023-07-13T06:30:45;20.20;99.90
7411;DHT22;3747;48.628;9.058;2023-07-13T06:33:11;20.40;99.90
7411;DHT22;3747;48.628;9.058;2023-07-13T06:35:38;20.90;99.90
7411;DHT22;3747;48.628;9.058;2023-07-13T06:38:05;21.70;99.90
7411;DHT22;3747;48.628;9.058;2023-07-13T06:40:31;21.60;99.90
7411;DHT22;3747;48.628;9.058;2023-07-13T06:42:58;21.30;99.90
7411;DHT22;3747;48.628;9.058;2023-07-13T06:45:26;21.70;99.90
7411;DHT22;3747;48.628;9.058;2023-07-13T06:47:53;21.90;99.90
7411;DHT22;3747;48.628;9.058;2023-07-13T06:50:19;22.50;99.90
7411;DHT22;3747;48.628;9.058;2023-07-13T06:52:46;22.60;99.80
7411;DHT22;3747;48.628;9.058;2023-07-13T06:55:13;23.10;98.60
7411;DHT22;3747;48.628;9.058;2023-07-13T06:57:39;23.00;98.50
7411;DHT22;3747;48.628;9.058;2023-07-13T07:00:07;22.90;97.40
7411;DHT22;3747;48.628;9.058;2023-07-13T07:02:36;22.60;97.90
7411;DHT22;3747;48.628;9.058;2023-07-13T07:05:03;22.70;97.10
7411;DHT22;3747;48.628;9.058;2023-07-13T07:07:30;22.20;96.60
7411;DHT22;3747;48.628;9.058;2023-07-13T07:09:57;22.60;97.10
7411;DHT22;3747;48.628;9.058;2023-07-13T07:12:24;22.60;96.80
7411;DHT22;3747;48.628;9.058;2023-07-13T07:14:50;22.10;97.30
7411;DHT22;3747;48.628;9.058;2023-07-13T07:17:17;21.80;96.50
7411;DHT22;3747;48.628;9.058;2023-07-13T07:19:45;21.70;96.60
7411;DHT22;3747;48.628;9.058;2023-07-13T07:22:12;21.70;96.50
7411;DHT22;3747;48.628;9.058;2023-07-13T07:24:41;21.90;95.40
7411;DHT22;3747;48.628;9.058;2023-07-13T07:27:07;22.00;95.30
7411;DHT22;3747;48.628;9.058;2023-07-13T07:29:34;22.00;95.40
7411;DHT22;3747;48.628;9.058;2023-07-13T07:32:11;21.70;97.10
7411;DHT22;3747;48.628;9.058;2023-07-13T07:34:38;21.80;96.00
7411;DHT22;3747;48.628;9.058;2023-07-13T07:37:06;22.10;94.50
7411;DHT22;3747;48.628;9.058;2023-07-13T07:39:33;22.50;95.40
7411;DHT22;3747;48.628;9.058;2023-07-13T07:42:00;22.70;93.60
7411;DHT22;3747;48.628;9.058;2023-07-13T07:44:26;22.80;94.40
7411;DHT22;3747;48.628;9.058;2023-07-13T07:46:54;23.10;93.40
7411;DHT22;3747;48.628;9.058;2023-07-13T07:49:37;23.50;92.90
7411;DHT22;3747;48.628;9.058;2023-07-13T07:52:06;23.50;91.60
7411;DHT22;3747;48.628;9.058;2023-07-13T07:54:33;23.60;91.70
7411;DHT22;3747;48.628;9.058;2023-07-13T07:57:00;23.40;91.10
7411;DHT22;3747;48.628;9.058;2023-07-13T07:59:28;23.90;91.10
7411;DHT22;3747;48.628;9.058;2023-07-13T08:01:55;23.80;90.00
7411;DHT22;3747;48.628;9.058;2023-07-13T08:04:22;23.70;89.00
7411;DHT22;3747;48.628;9.058;2023-07-13T08:06:50;23.50;90.40
7411;DHT22;3747;48.628;9.058;2023-07-13T08:09:24;23.10;89.90
7411;DHT22;3747;48.628;9.058;2023-07-13T08:11:50;23.30;90.00
7411;DHT22;3747;48.628;9.058;2023-07-13T08:14:21;23.60;90.40
7411;DHT22;3747;48.628;9.058;2023-07-13T08:16:47;24.30;88.50
7411;DHT22;3747;48.628;9.058;2023-07-13T08:19:14;23.90;90.60
7411;DHT22;3747;48.628;9.058;2023-07-13T08:21:41;23.90;88.70
7411;DHT22;3747;48.628;9.058;2023-07-13T08:24:08;24.00;88.10
7411;DHT22;3747;48.628;9.058;2023-07-13T08:26:36;24.50;90.30
7411;DHT22;3747;48.628;9.058;2023-07-13T08:29:03;24.70;89.00
7411;DHT22;3747;48.628;9.058;2023-07-13T08:31:30;24.70;89.50
7411;DHT22;3747;48.628;9.058;2023-07-13T08:34:10;24.70;90.10
7411;DHT22;3747;48.628;9.058;2023-07-13T08:36:36;24.20;89.90
7411;DHT22;3747;48.628;9.058;2023-07-13T08:39:03;24.20;88.70
7411;DHT22;3747;48.628;9.058;2023-07-13T08:41:31;24.60;87.20
7411;DHT22;3747;48.628;9.058;2023-07-13T08:44:13;24.70;86.70
7411;DHT22;3747;48.628;9.058;2023-07-13T08:46:45;25.00;86.90
7411;DHT22;3747;48.628;9.058;2023-07-13T08:49:15;25.10;88.50
7411;DHT22;3747;48.628;9.058;2023-07-13T08:51:45;26.00;84.40
7411;DHT22;3747;48.628;9.058;2023-07-13T08:54:22;26.10;81.30
7411;DHT22;3747;48.628;9.058;2023-07-13T08:56:50;26.30;81.60
7411;DHT22;3747;48.628;9.058;2023-07-13T08:59:24;26.30;80.40
7411;DHT22;3747;48.628;9.058;2023-07-13T09:02:04;26.00;78.60
7411;DHT22;3747;48.628;9.058;2023-07-13T09:04:36;25.70;86.10
7411;DHT22;3747;48.628;9.058;2023-07-13T09:07:07;26.10;79.30
7411;DHT22;3747;48.628;9.058;2023-07-13T09:09:47;25.60;79.70
7411;DHT22;3747;48.628;9.058;2023-07-13T09:12:23;25.40;81.80
7411;DHT22;3747;48.628;9.058;2023-07-13T09:14:55;25.80;79.60
7411;DHT22;3747;48.628;9.058;2023-07-13T09:17:27;25.90;80.00
7411;DHT22;3747;48.628;9.058;2023-07-13T09:19:58;26.10;75.90
7411;DHT22;3747;48.628;9.058;2023-07-13T09:22:26;26.20;78.40
7411;DHT22;3747;48.628;9.058;2023-07-13T09:25:00;26.20;75.20
7411;DHT22;3747;48.628;9.058;2023-07-13T09:27:31;26.30;73.90
7411;DHT22;3747;48.628;9.058;2023-07-13T09:30:15;26.70;75.30
7411;DHT22;3747;48.628;9.058;2023-07-13T09:32:50;26.20;75.40
7411;DHT22;3747;48.628;9.058;2023-07-13T09:35:20;25.40;73.60
7411;DHT22;3747;48.628;9.058;2023-07-13T09:37:48;25.30;75.10
7411;DHT22;3747;48.628;9.058;2023-07-13T09:40:21;24.80;77.50
7411;DHT22;3747;48.628;9.058;2023-07-13T09:42:52;24.50;78.20
7411;DHT22;3747;48.628;9.058;2023-07-13T09:45:29;24.40;79.60
7411;DHT22;3747;48.628;9.058;2023-07-13T09:48:06;23.90;79.40
7411;DHT22;3747;48.628;9.058;2023-07-13T09:50:33;24.10;76.50
7411;DHT22;3747;48.628;9.058;2023-07-13T09:53:01;24.50;78.30
7411;DHT22;3747;48.628;9.058;2023-07-13T09:55:31;25.30;78.60
7411;DHT22;3747;48.628;9.058;2023-07-13T09:58:03;26.20;77.90
7411;DHT22;3747;48.628;9.058;2023-07-13T10:00:40;27.10;72.90
7411;DHT22;3747;48.628;9.058;2023-07-13T10:03:17;26.50;75.30
7411;DHT22;3747;48.628;9.058;2023-07-13T10:05:46;26.10;75.70
7411;DHT22;3747;48.628;9.058;2023-07-13T10:08:23;26.60;74.10
7411;DHT22;3747;48.628;9.058;2023-07-13T10:10:57;26.20;76.40
7411;DHT22;3747;48.628;9.058;2023-07-13T10:13:26;26.30;75.50
7411;DHT22;3747;48.628;9.058;2023-07-13T10:15:56;26.30;75.60
7411;DHT22;3747;48.628;9.058;2023-07-13T10:18:24;25.90;76.00
7411;DHT22;3747;48.628;9.058;2023-07-13T10:20:54;25.60;75.50
7411;DHT22;3747;48.628;9.058;2023-07-13T10:23:31;25.10;77.40
7411;DHT22;3747;48.628;9.058;2023-07-13T10:25:59;24.70;77.00
7411;DHT22;3747;48.628;9.058;2023-07-13T10:28:29;24.90;79.60
7411;DHT22;3747;48.628;9.058;2023-07-13T10:30:59;24.40;78.80
7411;DHT22;3747;48.628;9.058;2023-07-13T10:33:27;23.90;80.70
7411;DHT22;3747;48.628;9.058;2023-07-13T10:36:01;24.20;80.30
7411;DHT22;3747;48.628;9.058;2023-07-13T10:38:30;25.40;80.70
7411;DHT22;3747;48.628;9.058;2023-07-13T10:40:59;26.50;77.40
7411;DHT22;3747;48.628;9.058;2023-07-13T10:43:39;26.50;76.40
7411;DHT22;3747;48.628;9.058;2023-07-13T10:46:11;26.10;72.90
7411;DHT22;3747;48.628;9.058;2023-07-13T10:48:40;26.90;76.10
7411;DHT22;3747;48.628;9.058;2023-07-13T10:51:10;27.50;71.70
7411;DHT22;3747;48.628;9.058;2023-07-13T10:53:38;27.50;72.10
7411;DHT22;3747;48.628;9.058;2023-07-13T10:56:21;26.90;73.80
7411;DHT22;3747;48.628;9.058;2023-07-13T10:59:01;26.80;73.10
7411;DHT22;3747;48.628;9.058;2023-07-13T11:01:40;27.00;74.10
7411;DHT22;3747;48.628;9.058;2023-07-13T11:04:12;27.20;75.20
7411;DHT22;3747;48.628;9.058;2023-07-13T11:06:43;27.20;71.50
7411;DHT22;3747;48.628;9.058;2023-07-13T11:09:25;26.90;74.70
7411;DHT22;3747;48.628;9.058;2023-07-13T11:11:58;25.80;73.60
7411;DHT22;3747;48.628;9.058;2023-07-13T11:14:29;25.80;74.40
7411;DHT22;3747;48.628;9.058;2023-07-13T11:16:58;26.30;75.40
7411;DHT22;3747;48.628;9.058;2023-07-13T11:19:38;27.00;71.30
7411;DHT22;3747;48.628;9.058;2023-07-13T11:22:24;27.50;69.90
7411;DHT22;3747;48.628;9.058;2023-07-13T11:24:56;28.10;68.10
7411;DHT22;3747;48.628;9.058;2023-07-13T11:27:40;28.10;67.60
7411;DHT22;3747;48.628;9.058;2023-07-13T11:30:18;29.00;65.80
7411;DHT22;3747;48.628;9.058;2023-07-13T11:32:51;29.00;65.20
7411;DHT22;3747;48.628;9.058;2023-07-13T11:35:28;27.20;65.30
7411;DHT22;3747;48.628;9.058;2023-07-13T11:37:55;26.60;66.70
7411;DHT22;3747;48.628;9.058;2023-07-13T11:40:25;26.10;67.00
7411;DHT22;3747;48.628;9.058;2023-07-13T11:42:59;25.50;66.60
7411;DHT22;3747;48.628;9.058;2023-07-13T11:45:32;25.30;67.90
7411;DHT22;3747;48.628;9.058;2023-07-13T11:48:00;25.30;67.90
7411;DHT22;3747;48.628;9.058;2023-07-13T11:50:27;25.90;68.70
7411;DHT22;3747;48.628;9.058;2023-07-13T11:52:54;25.70;66.80
7411;DHT22;3747;48.628;9.058;2023-07-13T11:55:23;26.20;68.50
7411;DHT22;3747;48.628;9.058;2023-07-13T11:57:53;26.20;65.60
7411;DHT22;3747;48.628;9.058;2023-07-13T12:00:25;25.70;69.30
7411;DHT22;3747;48.628;9.058;2023-07-13T12:02:55;26.80;62.50
7411;DHT22;3747;48.628;9.058;2023-07-13T12:05:24;27.90;61.60
7411;DHT22;3747;48.628;9.058;2023-07-13T12:07:51;29.30;60.50
7411;DHT22;3747;48.628;9.058;2023-07-13T12:10:22;29.30;57.30
7411;DHT22;3747;48.628;9.058;2023-07-13T12:12:52;29.40;59.00
7411;DHT22;3747;48.628;9.058;2023-07-13T12:15:20;28.80;58.60
7411;DHT22;3747;48.628;9.058;2023-07-13T12:17:47;28.90;58.80
7411;DHT22;3747;48.628;9.058;2023-07-13T12:20:25;28.50;57.10
7411;DHT22;3747;48.628;9.058;2023-07-13T12:22:53;29.00;54.50
7411;DHT22;3747;48.628;9.058;2023-07-13T12:25:20;28.70;54.80
7411;DHT22;3747;48.628;9.058;2023-07-13T12:27:48;27.70;56.00
7411;DHT22;3747;48.628;9.058;2023-07-13T12:30:24;27.70;56.90
7411;DHT22;3747;48.628;9.058;2023-07-13T12:33:07;28.40;58.60
7411;DHT22;3747;48.628;9.058;2023-07-13T12:35:41;29.30;55.20
7411;DHT22;3747;48.628;9.058;2023-07-13T12:38:11;30.70;53.00
7411;DHT22;3747;48.628;9.058;2023-07-13T12:40:39;31.40;53.00
7411;DHT22;3747;48.628;9.058;2023-07-13T12:43:11;31.60;57.30
7411;DHT22;3747;48.628;9.058;2023-07-13T12:45:38;32.50;50.20
7411;DHT22;3747;48.628;9.058;2023-07-13T12:48:14;32.70;50.30
7411;DHT22;3747;48.628;9.058;2023-07-13T12:50:46;32.20;50.20
7411;DHT22;3747;48.628;9.058;2023-07-13T12:53:18;30.30;50.90
7411;DHT22;3747;48.628;9.058;2023-07-13T12:55:47;28.70;50.90
7411;DHT22;3747;48.628;9.058;2023-07-13T12:58:20;27.20;53.40
7411;DHT22;3747;48.628;9.058;2023-07-13T13:00:51;26.60;57.80
7411;DHT22;3747;48.628;9.058;2023-07-13T13:03:26;27.00;56.90
7411;DHT22;3747;48.628;9.058;2023-07-13T13:05:59;28.10;56.30
7411;DHT22;3747;48.628;9.058;2023-07-13T13:08:30;28.10;51.70
7411;DHT22;3747;48.628;9.058;2023-07-13T13:10:57;28.50;52.80
7411;DHT22;3747;48.628;9.058;2023-07-13T13:13:24;29.30;51.00
7411;DHT22;3747;48.628;9.058;2023-07-13T13:15:51;29.30;51.40
7411;DHT22;3747;48.628;9.058;2023-07-13T13:18:18;28.30;51.90
7411;DHT22;3747;48.628;9.058;2023-07-13T13:20:46;28.70;51.50
7411;DHT22;3747;48.628;9.058;2023-07-13T13:23:15;29.20;53.60
7411;DHT22;3747;48.628;9.058;2023-07-13T13:25:43;29.30;50.00
7411;DHT22;3747;48.628;9.058;2023-07-13T13:28:15;29.60;51.60
7411;DHT22;3747;48.628;9.058;2023-07-13T13:30:43;29.50;50.30
7411;DHT22;3747;48.628;9.058;2023-07-13T13:33:12;30.10;50.90
7411;DHT22;3747;48.628;9.058;2023-07-13T13:35:40;30.10;49.90
7411;DHT22;3747;48.628;9.058;2023-07-13T13:38:11;30.10;54.30
7411;DHT22;3747;48.628;9.058;2023-07-13T13:40:41;30.20;52.20
7411;DHT22;3747;48.628;9.058;2023-07-13T13:43:15;30.10;52.40
7411;DHT22;3747;48.628;9.058;2023-07-13T13:45:43;30.90;49.30
7411;DHT22;3747;48.628;9.058;2023-07-13T13:48:15;31.30;49.70
7411;DHT22;3747;48.628;9.058;2023-07-13T13:50:42;31.20;46.40
7411;DHT22;3747;48.628;9.058;2023-07-13T13:53:10;30.00;48.00
7411;DHT22;3747;48.628;9.058;2023-07-13T13:55:38;29.20;48.70
7411;DHT22;3747;48.628;9.058;2023-07-13T13:58:09;30.00;48.00
7411;DHT22;3747;48.628;9.058;2023-07-13T14:00:36;28.90;47.90
7411;DHT22;3747;48.628;9.058;2023-07-13T14:03:03;27.20;51.40
7411;DHT22;3747;48.628;9.058;2023-07-13T14:05:31;27.10;52.40
7411;DHT22;3747;48.628;9.058;2023-07-13T14:07:58;28.10;52.60
7411;DHT22;3747;48.628;9.058;2023-07-13T14:10:25;29.60;49.80
7411;DHT22;3747;48.628;9.058;2023-07-13T14:12:54;28.90;51.40
7411;DHT22;3747;48.628;9.058;2023-07-13T14:15:26;28.70;51.00
7411;DHT22;3747;48.628;9.058;2023-07-13T14:17:52;28.90;52.80
7411;DHT22;3747;48.628;9.058;2023-07-13T14:20:21;29.30;50.50
7411;DHT22;3747;48.628;9.058;2023-07-13T14:22:49;29.50;50.90
7411;DHT22;3747;48.628;9.058;2023-07-13T14:25:17;28.60;50.90
7411;DHT22;3747;48.628;9.058;2023-07-13T14:27:45;27.30;51.00
7411;DHT22;3747;48.628;9.058;2023-07-13T14:30:15;26.40;54.50
7411;DHT22;3747;48.628;9.058;2023-07-13T14:32:43;25.90;57.70
7411;DHT22;3747;48.628;9.058;2023-07-13T14:35:11;27.60;55.20
7411;DHT22;3747;48.628;9.058;2023-07-13T14:37:38;29.20;53.00
7411;DHT22;3747;48.628;9.058;2023-07-13T14:40:13;30.40;51.60
7411;DHT22;3747;48.628;9.058;2023-07-13T14:42:40;29.40;52.40
7411;DHT22;3747;48.628;9.058;2023-07-13T14:45:13;27.00;54.80
7411;DHT22;3747;48.628;9.058;2023-07-13T14:47:40;26.10;57.20
7411;DHT22;3747;48.628;9.058;2023-07-13T14:50:14;25.80;57.20
7411;DHT22;3747;48.628;9.058;2023-07-13T14:52:42;25.40;59.30
7411;DHT22;3747;48.628;9.058;2023-07-13T14:55:11;26.20;59.40
7411;DHT22;3747;48.628;9.058;2023-07-13T14:57:38;27.90;56.80
7411;DHT22;3747;48.628;9.058;2023-07-13T15:00:07;29.30;54.90
7411;DHT22;3747;48.628;9.058;2023-07-13T15:02:53;28.20;54.40
7411;DHT22;3747;48.628;9.058;2023-07-13T15:05:25;27.30;57.90
7411;DHT22;3747;48.628;9.058;2023-07-13T15:07:57;26.60;57.70
7411;DHT22;3747;48.628;9.058;2023-07-13T15:10:26;25.90;57.50
7411;DHT22;3747;48.628;9.058;2023-07-13T15:12:58;25.30;60.80
7411;DHT22;3747;48.628;9.058;2023-07-13T15:15:25;25.20;60.40
7411;DHT22;3747;48.628;9.058;2023-07-13T15:17:51;25.90;61.70
7411;DHT22;3747;48.628;9.058;2023-07-13T15:20:23;27.20;59.80
7411;DHT22;3747;48.628;9.058;2023-07-13T15:22:51;27.20;58.90
7411;DHT22;3747;48.628;9.058;2023-07-13T15:25:19;26.10;60.70
7411;DHT22;3747;48.628;9.058;2023-07-13T15:27:47;25.50;60.90
7411;DHT22;3747;48.628;9.058;2023-07-13T15:30:14;26.50;61.10
7411;DHT22;3747;48.628;9.058;2023-07-13T15:32:41;27.60;59.20
7411;DHT22;3747;48.628;9.058;2023-07-13T15:35:14;27.70;58.70
7411;DHT22;3747;48.628;9.058;2023-07-13T15:37:43;26.30;59.80
7411;DHT22;3747;48.628;9.058;2023-07-13T15:40:22;26.70;59.10
7411;DHT22;3747;48.628;9.058;2023-07-13T15:42:50;27.20;57.80
7411;DHT22;3747;48.628;9.058;2023-07-13T15:45:18;27.60;56.90
7411;DHT22;3747;48.628;9.058;2023-07-13T15:47:45;27.80;56.70
7411;DHT22;3747;48.628;9.058;2023-07-13T15:50:13;28.10;56.30
7411;DHT22;3747;48.628;9.058;2023-07-13T15:52:42;27.90;57.10
7411;DHT22;3747;48.628;9.058;2023-07-13T15:55:11;27.80;57.30
7411;DHT22;3747;48.628;9.058;2023-07-13T15:57:41;27.80;56.80
7411;DHT22;3747;48.628;9.058;2023-07-13T16:00:19;27.90;57.00
7411;DHT22;3747;48.628;9.058;2023-07-13T16:02:47;28.30;55.70
7411;DHT22;3747;48.628;9.058;2023-07-13T16:05:18;28.40;57.20
7411;DHT22;3747;48.628;9.058;2023-07-13T16:07:47;28.90;55.00
7411;DHT22;3747;48.628;9.058;2023-07-13T16:10:16;28.20;56.60
7411;DHT22;3747;48.628;9.058;2023-07-13T16:12:43;28.00;55.70
7411;DHT22;3747;48.628;9.058;2023-07-13T16:15:15;27.00;57.10
7411;DHT22;3747;48.628;9.058;2023-07-13T16:17:44;26.30;59.20